Time,TemperatureF,DewpointF,PressureIn,WindDirection,WindDirectionDegrees,WindSpeedMPH,WindSpeedGustMPH,Humidity,HourlyPrecipIn,Conditions,Clouds,dailyrainin,SolarRadiationWatts/m^2,SoftwareType,DateUTC
2013-02-05 00:01:00,57.0,49.0,-100.00,SE,136,4.0,9.0,75,0.00,,,0.00,0.000000,,2013-02-05 10:01:00,
2013-02-05 00:11:00,57.0,49.0,-100.00,SE,136,4.0,9.0,75,0.00,,,0.00,0.000000,,2013-02-05 10:11:00,
2013-02-05 00:21:00,57.0,49.0,-100.00,SE,136,4.0,9.0,75,0.00,,,0.00,0.000000,,2013-02-05 10:21:00,
2013-02-05 00:31:00,57.0,49.0,-100.00,SE,136,4.0,9.0,75,0.00,,,0.00,0.000000,,2013-02-05 10:31:00,
2013-02-05 00:52:00,53.0,48.0,-100.00,SSE,149,4.0,6.0,83,0.00,,,0.00,0.000000,,2013-02-05 10:52:00,
2013-02-05 01:01:00,53.0,48.0,-100.00,SSE,149,4.0,6.0,83,0.00,,,0.00,0.000000,,2013-02-05 11:01:00,
2013-02-05 01:11:00,53.0,48.0,-100.00,SSE,149,4.0,6.0,83,0.00,,,0.00,0.000000,,2013-02-05 11:11:00,
2013-02-05 01:22:00,53.0,48.0,-100.00,SSE,149,4.0,6.0,83,0.00,,,0.00,0.000000,,2013-02-05 11:22:00,
2013-02-05 01:32:00,53.0,48.0,-100.00,SSE,149,4.0,6.0,83,0.00,,,0.00,0.000000,,2013-02-05 11:32:00,
2013-02-05 01:52:00,55.0,49.0,-100.00,ENE,74,3.0,7.0,81,0.00,,,-99.99,0.000000,,2013-02-05 11:52:00,
2013-02-05 02:01:00,55.0,49.0,-100.00,ENE,74,3.0,7.0,81,0.00,,,-99.99,0.000000,,2013-02-05 12:01:00,
2013-02-05 02:12:00,55.0,49.0,-100.00,ENE,74,3.0,7.0,81,0.00,,,-99.99,0.000000,,2013-02-05 12:12:00,
2013-02-05 02:21:00,55.0,49.0,-100.00,ENE,74,3.0,7.0,81,0.00,,,-99.99,0.000000,,2013-02-05 12:21:00,
2013-02-05 02:31:00,55.0,49.0,-100.00,ENE,74,3.0,7.0,81,0.00,,,-99.99,0.000000,,2013-02-05 12:31:00,
2013-02-05 03:01:00,55.0,49.0,-100.00,SE,128,5.0,8.0,81,0.00,,,0.00,0.000000,,2013-02-05 13:01:00,
2013-02-05 03:11:00,55.0,49.0,-100.00,SE,128,5.0,8.0,81,0.00,,,0.00,0.000000,,2013-02-05 13:11:00,
2013-02-05 03:21:00,55.0,49.0,-100.00,SE,128,5.0,8.0,81,0.00,,,0.00,0.000000,,2013-02-05 13:21:00,
2013-02-05 03:31:00,55.0,49.0,-100.00,SE,128,5.0,8.0,81,0.00,,,0.00,0.000000,,2013-02-05 13:31:00,
2013-02-05 04:01:00,57.0,52.0,-100.00,SSE,151,5.0,9.0,83,0.00,,,0.00,0.000000,,2013-02-05 14:01:00,
2013-02-05 04:12:00,57.0,52.0,-100.00,SSE,151,5.0,9.0,83,0.00,,,0.00,0.000000,,2013-02-05 14:12:00,
2013-02-05 04:21:00,57.0,52.0,-100.00,SSE,151,5.0,9.0,83,0.00,,,0.00,0.000000,,2013-02-05 14:21:00,
2013-02-05 04:31:00,57.0,52.0,-100.00,SSE,151,5.0,9.0,83,0.00,,,0.00,0.000000,,2013-02-05 14:31:00,
2013-02-05 05:01:00,55.0,48.0,-100.00,SE,138,4.0,8.0,77,0.00,,,0.00,0.000000,,2013-02-05 15:01:00,
2013-02-05 05:11:00,55.0,48.0,-100.00,SE,138,4.0,8.0,77,0.00,,,0.00,0.000000,,2013-02-05 15:11:00,
2013-02-05 05:21:00,55.0,48.0,-100.00,SE,138,4.0,8.0,77,0.00,,,0.00,0.000000,,2013-02-05 15:21:00,
2013-02-05 05:32:00,55.0,48.0,-100.00,SE,138,4.0,8.0,77,0.00,,,0.00,0.000000,,2013-02-05 15:32:00,
2013-02-05 06:01:00,55.0,49.0,-100.00,SE,132,4.0,10.0,79,0.00,,,0.00,0.000000,,2013-02-05 16:01:00,
2013-02-05 06:11:00,55.0,49.0,-100.00,SE,132,4.0,10.0,79,0.00,,,0.00,0.000000,,2013-02-05 16:11:00,
2013-02-05 06:22:00,55.0,49.0,-100.00,SE,132,4.0,10.0,79,0.00,,,0.00,0.000000,,2013-02-05 16:22:00,
2013-02-05 06:32:00,55.0,49.0,-100.00,SE,132,4.0,10.0,79,0.00,,,0.00,0.000000,,2013-02-05 16:32:00,
2013-02-05 06:52:00,54.0,49.0,-100.00,South,174,5.0,9.0,83,0.00,,,-99.99,0.000000,,2013-02-05 16:52:00,
2013-02-05 07:01:00,54.0,49.0,-100.00,South,174,5.0,9.0,83,0.00,,,-99.99,0.000000,,2013-02-05 17:01:00,
2013-02-05 07:11:00,54.0,49.0,-100.00,South,174,5.0,9.0,83,0.00,,,-99.99,0.000000,,2013-02-05 17:11:00,
2013-02-05 07:21:00,54.0,49.0,-100.00,South,174,5.0,9.0,83,0.00,,,-99.99,0.000000,,2013-02-05 17:21:00,
2013-02-05 07:32:00,54.0,49.0,-100.00,South,174,5.0,9.0,83,0.00,,,-99.99,0.000000,,2013-02-05 17:32:00,
2013-02-05 08:01:00,57.0,50.0,-100.00,SE,137,5.0,11.0,78,0.00,,,0.00,16.000000,,2013-02-05 18:01:00,
2013-02-05 08:11:00,57.0,50.0,-100.00,SE,137,5.0,11.0,78,0.00,,,0.00,16.000000,,2013-02-05 18:11:00,
2013-02-05 08:21:00,57.0,50.0,-100.00,SE,137,5.0,11.0,78,0.00,,,0.00,16.000000,,2013-02-05 18:21:00,
2013-02-05 08:31:00,57.0,50.0,-100.00,SE,137,5.0,11.0,78,0.00,,,0.00,16.000000,,2013-02-05 18:31:00,
2013-02-05 09:02:00,62.0,52.0,-100.00,NE,47,3.0,7.0,71,0.00,,,0.00,144.000000,,2013-02-05 19:02:00,
2013-02-05 09:11:00,62.0,52.0,-100.00,NE,47,3.0,7.0,71,0.00,,,0.00,144.000000,,2013-02-05 19:11:00,
2013-02-05 09:21:00,62.0,52.0,-100.00,NE,47,3.0,7.0,71,0.00,,,0.00,144.000000,,2013-02-05 19:21:00,
2013-02-05 09:31:00,62.0,52.0,-100.00,NE,47,3.0,7.0,71,0.00,,,0.00,144.000000,,2013-02-05 19:31:00,
2013-02-05 10:01:00,69.0,53.0,-100.00,SSW,213,7.0,13.0,56,0.00,,,0.00,446.000000,,2013-02-05 20:01:00,
2013-02-05 10:11:00,69.0,53.0,-100.00,SSW,213,7.0,13.0,56,0.00,,,0.00,446.000000,,2013-02-05 20:11:00,
2013-02-05 10:21:00,69.0,53.0,-100.00,SSW,213,7.0,13.0,56,0.00,,,0.00,446.000000,,2013-02-05 20:21:00,
2013-02-05 10:31:00,69.0,53.0,-100.00,SSW,213,7.0,13.0,56,0.00,,,0.00,446.000000,,2013-02-05 20:31:00,
2013-02-05 11:01:00,72.0,57.0,-100.00,NW,317,6.0,14.0,59,0.00,,,0.00,843.000000,,2013-02-05 21:01:00,
2013-02-05 11:11:00,72.0,57.0,-100.00,NW,317,6.0,14.0,59,0.00,,,0.00,843.000000,,2013-02-05 21:11:00,
2013-02-05 11:21:00,72.0,57.0,-100.00,NW,317,6.0,14.0,59,0.00,,,0.00,843.000000,,2013-02-05 21:21:00,
2013-02-05 11:31:00,72.0,57.0,-100.00,NW,317,6.0,14.0,59,0.00,,,0.00,843.000000,,2013-02-05 21:31:00,
2013-02-05 12:01:00,73.0,53.0,-100.00,West,273,6.0,15.0,49,0.00,,,0.00,925.000000,,2013-02-05 22:01:00,
2013-02-05 12:11:00,73.0,53.0,-100.00,West,273,6.0,15.0,49,0.00,,,0.00,925.000000,,2013-02-05 22:11:00,
2013-02-05 12:21:00,73.0,53.0,-100.00,West,273,6.0,15.0,49,0.00,,,0.00,925.000000,,2013-02-05 22:21:00,
2013-02-05 12:31:00,73.0,53.0,-100.00,West,273,6.0,15.0,49,0.00,,,0.00,925.000000,,2013-02-05 22:31:00,
2013-02-05 13:01:00,73.0,54.0,-100.00,North,11,6.0,19.0,52,0.00,,,0.00,911.000000,,2013-02-05 23:01:00,
2013-02-05 13:11:00,73.0,54.0,-100.00,North,11,6.0,19.0,52,0.00,,,0.00,911.000000,,2013-02-05 23:11:00,
2013-02-05 13:21:00,73.0,54.0,-100.00,North,11,6.0,19.0,52,0.00,,,0.00,911.000000,,2013-02-05 23:21:00,
2013-02-05 13:32:00,73.0,54.0,-100.00,North,11,6.0,19.0,52,0.00,,,0.00,911.000000,,2013-02-05 23:32:00,
2013-02-05 14:02:00,69.0,56.0,-100.00,WNW,291,6.0,23.0,63,0.00,,,0.00,270.000000,,2013-02-06 00:02:00,
2013-02-05 14:11:00,69.0,56.0,-100.00,WNW,291,6.0,23.0,63,0.00,,,0.00,270.000000,,2013-02-06 00:11:00,
2013-02-05 14:21:00,69.0,56.0,-100.00,WNW,291,6.0,23.0,63,0.00,,,0.00,270.000000,,2013-02-06 00:21:00,
2013-02-05 14:31:00,69.0,56.0,-100.00,WNW,291,6.0,23.0,63,0.00,,,0.00,270.000000,,2013-02-06 00:31:00,
2013-02-05 15:02:00,72.0,57.0,-100.00,North,355,6.0,14.0,60,0.00,,,0.00,373.000000,,2013-02-06 01:02:00,
2013-02-05 15:11:00,72.0,57.0,-100.00,North,355,6.0,14.0,60,0.00,,,0.00,373.000000,,2013-02-06 01:11:00,
2013-02-05 15:21:00,72.0,57.0,-100.00,North,355,6.0,14.0,60,0.00,,,0.00,373.000000,,2013-02-06 01:21:00,
2013-02-05 15:31:00,72.0,57.0,-100.00,North,355,6.0,14.0,60,0.00,,,0.00,373.000000,,2013-02-06 01:31:00,
2013-02-05 16:01:00,71.0,54.0,-100.00,NNE,19,10.0,19.0,56,0.00,,,0.00,334.000000,,2013-02-06 02:01:00,
2013-02-05 16:11:00,71.0,54.0,-100.00,NNE,19,10.0,19.0,56,0.00,,,0.00,334.000000,,2013-02-06 02:11:00,
2013-02-05 16:21:00,71.0,54.0,-100.00,NNE,19,10.0,19.0,56,0.00,,,0.00,334.000000,,2013-02-06 02:21:00,
2013-02-05 16:31:00,71.0,54.0,-100.00,NNE,19,10.0,19.0,56,0.00,,,0.00,334.000000,,2013-02-06 02:31:00,
2013-02-05 16:52:00,69.0,53.0,-100.00,NE,54,9.0,21.0,57,0.00,,,0.00,153.000000,,2013-02-06 02:52:00,
2013-02-05 17:02:00,69.0,53.0,-100.00,NE,54,9.0,21.0,57,0.00,,,0.00,153.000000,,2013-02-06 03:02:00,
2013-02-05 17:12:00,69.0,53.0,-100.00,NE,54,9.0,21.0,57,0.00,,,0.00,153.000000,,2013-02-06 03:12:00,
2013-02-05 17:21:00,69.0,53.0,-100.00,NE,54,9.0,21.0,57,0.00,,,0.00,153.000000,,2013-02-06 03:21:00,
2013-02-05 17:31:00,69.0,53.0,-100.00,NE,54,9.0,21.0,57,0.00,,,0.00,153.000000,,2013-02-06 03:31:00,
2013-02-05 18:02:00,67.0,55.0,-100.00,NE,48,7.0,16.0,65,0.00,,,0.00,123.000000,,2013-02-06 04:02:00,
2013-02-05 18:11:00,67.0,55.0,-100.00,NE,48,7.0,16.0,65,0.00,,,0.00,123.000000,,2013-02-06 04:11:00,
2013-02-05 18:21:00,67.0,55.0,-100.00,NE,48,7.0,16.0,65,0.00,,,0.00,123.000000,,2013-02-06 04:21:00,
2013-02-05 18:31:00,67.0,55.0,-100.00,NE,48,7.0,16.0,65,0.00,,,0.00,123.000000,,2013-02-06 04:31:00,
2013-02-05 19:01:00,64.0,55.0,-100.00,NE,53,3.0,13.0,72,0.00,,,0.00,21.000000,,2013-02-06 05:01:00,
2013-02-05 19:12:00,64.0,55.0,-100.00,NE,53,3.0,13.0,72,0.00,,,0.00,21.000000,,2013-02-06 05:12:00,
2013-02-05 19:22:00,64.0,55.0,-100.00,NE,53,3.0,13.0,72,0.00,,,0.00,21.000000,,2013-02-06 05:22:00,
2013-02-05 19:31:00,64.0,55.0,-100.00,NE,53,3.0,13.0,72,0.00,,,0.00,21.000000,,2013-02-06 05:31:00,
2013-02-05 20:01:00,60.0,53.0,-100.00,South,180,3.0,7.0,77,0.00,,,-99.99,0.000000,,2013-02-06 06:01:00,
2013-02-05 20:11:00,60.0,53.0,-100.00,South,180,3.0,7.0,77,0.00,,,-99.99,0.000000,,2013-02-06 06:11:00,
2013-02-05 20:21:00,60.0,53.0,-100.00,South,180,3.0,7.0,77,0.00,,,-99.99,0.000000,,2013-02-06 06:21:00,
2013-02-05 20:31:00,60.0,53.0,-100.00,South,180,3.0,7.0,77,0.00,,,-99.99,0.000000,,2013-02-06 06:31:00,
2013-02-05 20:52:00,60.0,50.0,-100.00,SSE,165,4.0,9.0,69,0.00,,,0.00,0.000000,,2013-02-06 06:52:00,
2013-02-05 21:01:00,60.0,50.0,-100.00,SSE,165,4.0,9.0,69,0.00,,,0.00,0.000000,,2013-02-06 07:01:00,
2013-02-05 21:11:00,60.0,50.0,-100.00,SSE,165,4.0,9.0,69,0.00,,,0.00,0.000000,,2013-02-06 07:11:00,
2013-02-05 21:21:00,60.0,50.0,-100.00,SSE,165,4.0,9.0,69,0.00,,,0.00,0.000000,,2013-02-06 07:21:00,
2013-02-05 21:32:00,60.0,50.0,-100.00,SSE,165,4.0,9.0,69,0.00,,,0.00,0.000000,,2013-02-06 07:32:00,
2013-02-05 22:01:00,59.0,50.0,-100.00,South,176,5.0,8.0,73,0.00,,,0.00,0.000000,,2013-02-06 08:01:00,
2013-02-05 22:11:00,59.0,50.0,-100.00,South,176,5.0,8.0,73,0.00,,,0.00,0.000000,,2013-02-06 08:11:00,
2013-02-05 22:21:00,59.0,50.0,-100.00,South,176,5.0,8.0,73,0.00,,,0.00,0.000000,,2013-02-06 08:21:00,
2013-02-05 22:31:00,59.0,50.0,-100.00,South,176,5.0,8.0,73,0.00,,,0.00,0.000000,,2013-02-06 08:31:00,
2013-02-05 23:01:00,55.0,49.0,-100.00,SSE,150,5.0,8.0,79,0.00,,,0.00,0.000000,,2013-02-06 09:01:00,
2013-02-05 23:11:00,55.0,49.0,-100.00,SSE,150,5.0,8.0,79,0.00,,,0.00,0.000000,,2013-02-06 09:11:00,
2013-02-05 23:21:00,55.0,49.0,-100.00,SSE,150,5.0,8.0,79,0.00,,,0.00,0.000000,,2013-02-06 09:21:00,
2013-02-05 23:31:00,55.0,49.0,-100.00,SSE,150,5.0,8.0,79,0.00,,,0.00,0.000000,,2013-02-06 09:31:00,